Time;durP1;ratioP1;P1;durP2;ratioP2;P2;SDS_P1;SDS_P2;PMS_P1;PMS_P2;Temp;Humidity;BMP_temperature;BMP_pressure;BME280_temperature;BME280_humidity;BME280_pressure;Samples;Min_cycle;Max_cycle;Signal;HPM_P1;HPM_P2
2022/03/10 00:00:59;;;;;;;;;;;;;;;-4.33;92.55;100237.55;1761117;81;20086;-65
2022/03/10 00:03:26;;;;;;;;;;;;;;;-4.37;92.23;100234.45;1761162;81;21114;-66
2022/03/10 00:05:53;;;;;;;;;;;;;;;-4.41;92.14;100242.58;1761187;81;20071;-65
2022/03/10 00:08:20;;;;;;;;;;;;;;;-4.43;92.27;100233.91;1761576;81;20118;-65
2022/03/10 00:10:47;;;;;;;;;;;;;;;-4.44;92.22;100238.13;1732636;83;20120;-65
2022/03/10 00:13:13;;;;;;;;;;;;;;;-4.44;92.04;100242.16;1732771;83;20072;-65
2022/03/10 00:15:42;;;;;;;;;;;;;;;-4.45;91.77;100241.33;1732847;81;20085;-65
2022/03/10 00:18:09;;;;;;;;;;;;;;;-4.46;91.77;100245.55;1732856;83;20096;-65
2022/03/10 00:20:36;;;;;;;;;;;;;;;-4.46;91.87;100241.53;1732893;83;20169;-65
2022/03/10 00:23:03;;;;;;;;;;;;;;;-4.45;91.89;100246.69;1733119;83;20100;-66
2022/03/10 00:25:33;;;;;;;;;;;;;;;-4.43;92.06;100250.51;1732843;83;20144;-66
2022/03/10 00:28:00;;;;;;;;;;;;;;;-4.43;92.42;100250.51;1732946;83;21155;-65
2022/03/10 00:30:27;;;;;;;;;;;;;;;-4.43;92.57;100249.17;1732837;83;20132;-65
2022/03/10 00:32:54;;;;;;;;;;;;;;;-4.47;92.64;100251.42;1732918;83;20085;-65
2022/03/10 00:35:22;;;;;;;;;;;;;;;-4.49;92.73;100245.95;1732912;83;20114;-65
2022/03/10 00:37:51;;;;;;;;;;;;;;;-4.50;92.82;100251.00;1732777;83;20141;-65
2022/03/10 00:40:19;;;;;;;;;;;;;;;-4.53;92.85;100249.55;1732813;83;21137;-65
2022/03/10 00:42:46;;;;;;;;;;;;;;;-4.55;92.85;100249.43;1732743;83;20203;-66
2022/03/10 00:45:13;;;;;;;;;;;;;;;-4.57;93.03;100249.63;1732804;83;20096;-66
2022/03/10 00:47:40;;;;;;;;;;;;;;;-4.59;93.16;100259.72;1732786;83;20101;-66
2022/03/10 00:50:08;;;;;;;;;;;;;;;-4.60;93.25;100257.25;1732890;83;20446;-66
2022/03/10 00:52:41;;;;;;;;;;;;;;;-4.60;93.54;100259.92;1733151;83;21743;-66
2022/03/10 00:55:08;;;;;;;;;;;;;;;-4.59;93.59;100262.92;1731632;83;20420;-66
2022/03/10 00:57:36;;;;;;;;;;;;;;;-4.58;94.00;100262.72;1732885;83;20502;-66
2022/03/10 01:00:05;;;;;;;;;;;;;;;-4.58;93.83;100256.53;1732846;83;20132;-66
2022/03/10 01:02:33;;;;;;;;;;;;;;;-4.59;93.61;100262.41;1751990;81;20433;-66
2022/03/10 01:05:01;;;;;;;;;;;;;;;-4.60;93.70;100263.43;1761463;81;21138;-66
2022/03/10 01:07:28;;;;;;;;;;;;;;;-4.61;93.72;100269.81;1761330;81;20090;-65
2022/03/10 01:09:54;;;;;;;;;;;;;;;-4.60;93.93;100257.25;1762723;81;20098;-65
2022/03/10 01:12:23;;;;;;;;;;;;;;;-4.60;93.74;100269.30;1763001;81;20082;-64
2022/03/10 01:14:49;;;;;;;;;;;;;;;-4.61;93.76;100263.11;1763328;80;20452;-67
2022/03/10 01:17:17;;;;;;;;;;;;;;;-4.60;93.94;100266.11;1763017;81;21139;-67
2022/03/10 01:19:45;;;;;;;;;;;;;;;-4.60;93.99;100267.96;1762908;81;20146;-67
2022/03/10 01:22:12;;;;;;;;;;;;;;;-4.61;93.95;100268.98;1763060;81;20098;-67
2022/03/10 01:24:41;;;;;;;;;;;;;;;-4.61;94.09;100271.66;1763124;81;20621;-67
2022/03/10 01:27:09;;;;;;;;;;;;;;;-4.60;94.39;100274.15;1763631;81;20094;-67
2022/03/10 01:29:38;;;;;;;;;;;;;;;-4.60;94.38;100277.34;1763020;81;21761;-67
2022/03/10 01:32:07;;;;;;;;;;;;;;;-4.62;94.32;100274.86;1762955;81;20074;-66
2022/03/10 01:34:33;;;;;;;;;;;;;;;-4.62;94.13;100286.12;1763392;81;20090;-65
2022/03/10 01:37:01;;;;;;;;;;;;;;;-4.68;93.62;100291.25;1763275;81;20174;-66
2022/03/10 01:39:32;;;;;;;;;;;;;;;-4.75;92.65;100291.73;1763124;81;20122;-66
2022/03/10 01:41:57;;;;;;;;;;;;;;;-4.82;90.98;100288.70;1763366;81;21907;-65
2022/03/10 01:44:25;;;;;;;;;;;;;;;-4.91;89.74;100297.40;1762938;81;20118;-65
2022/03/10 01:46:52;;;;;;;;;;;;;;;-4.98;89.56;100299.20;1762960;81;20082;-68
2022/03/10 01:49:20;;;;;;;;;;;;;;;-5.06;89.15;100301.53;1763237;81;20094;-67
2022/03/10 01:51:49;;;;;;;;;;;;;;;-5.15;88.55;100300.53;1763116;81;20126;-67
2022/03/10 01:54:16;;;;;;;;;;;;;;;-5.23;88.49;100298.86;1763050;81;21870;-67
2022/03/10 01:56:44;;;;;;;;;;;;;;;-5.28;88.13;100304.48;1766522;81;20130;-66
2022/03/10 01:59:12;;;;;;;;;;;;;;;-5.36;87.76;100308.95;1766608;81;20429;-66
2022/03/10 02:01:38;;;;;;;;;;;;;;;-5.41;87.77;100318.58;1766486;81;20082;-66
2022/03/10 02:04:05;;;;;;;;;;;;;;;-5.43;87.90;100319.28;1766727;81;20472;-66
2022/03/10 02:06:32;;;;;;;;;;;;;;;-5.44;88.05;100322.47;1766587;81;21137;-66
2022/03/10 02:11:46;;;;;;;;;;;;;;;-5.40;88.07;100324.25;1766622;81;20098;-66
2022/03/10 02:19:49;;;;;;;;;;;;;;;-5.32;88.39;100336.98;1766615;81;21154;-66
2022/03/10 02:22:16;;;;;;;;;;;;;;;-5.28;88.22;100339.27;1766528;81;20161;-66
2022/03/10 02:24:44;;;;;;;;;;;;;;;-5.30;88.59;100347.50;1766472;81;20142;-67
2022/03/10 02:27:14;;;;;;;;;;;;;;;-5.30;88.49;100342.14;1766549;81;20428;-68
2022/03/10 02:29:42;;;;;;;;;;;;;;;-5.30;88.34;100355.52;1766621;81;20118;-68
2022/03/10 02:32:10;;;;;;;;;;;;;;;-5.30;88.29;100352.02;1766575;81;21133;-67
2022/03/10 02:34:37;;;;;;;;;;;;;;;-5.32;88.21;100361.07;1766566;81;20433;-68
2022/03/10 02:37:05;;;;;;;;;;;;;;;-5.35;88.21;100364.13;1766596;81;20149;-67
2022/03/10 02:39:32;;;;;;;;;;;;;;;-5.36;88.20;100357.12;1766458;81;20078;-67
2022/03/10 02:41:59;;;;;;;;;;;;;;;-5.36;88.18;100365.66;1766869;81;20453;-67
2022/03/10 02:44:26;;;;;;;;;;;;;;;-5.38;88.24;100365.02;1766720;81;21107;-67
2022/03/10 02:46:52;;;;;;;;;;;;;;;-5.38;88.44;100372.55;1766400;81;20421;-67
2022/03/10 02:49:19;;;;;;;;;;;;;;;-5.39;88.40;100378.92;1766446;81;20110;-67
2022/03/10 02:51:48;;;;;;;;;;;;;;;-5.39;88.29;100381.59;1766537;81;20178;-67
2022/03/10 02:54:14;;;;;;;;;;;;;;;-5.42;87.93;100381.97;1766575;81;20154;-66
2022/03/10 02:56:43;;;;;;;;;;;;;;;-5.43;88.07;100388.86;1750446;81;21198;-66
2022/03/10 02:59:10;;;;;;;;;;;;;;;-5.45;87.45;100392.23;1747599;82;20115;-65
2022/03/10 03:01:38;;;;;;;;;;;;;;;-5.50;87.06;100398.16;1747813;82;20098;-66
2022/03/10 03:04:05;;;;;;;;;;;;;;;-5.57;86.18;100403.12;1747744;82;20104;-66
2022/03/10 03:06:31;;;;;;;;;;;;;;;-5.66;85.69;100398.40;1747673;82;20144;-65
2022/03/10 03:08:58;;;;;;;;;;;;;;;-5.71;85.38;100407.50;1747239;82;21120;-65
2022/03/10 03:11:25;;;;;;;;;;;;;;;-5.80;84.72;100412.16;1738099;82;20085;-66
2022/03/10 03:13:52;;;;;;;;;;;;;;;-5.84;84.89;100415.41;1734561;82;20452;-66
2022/03/10 03:16:23;;;;;;;;;;;;;;;-5.89;84.25;100420.00;1726577;82;20462;-66
2022/03/10 03:18:52;;;;;;;;;;;;;;;-5.93;84.04;100419.23;1696939;83;20183;-66
2022/03/10 03:21:20;;;;;;;;;;;;;;;-6.00;84.07;100424.50;1716345;83;21547;-66
2022/03/10 03:23:47;;;;;;;;;;;;;;;-6.06;84.17;100425.24;1719806;83;20124;-67
2022/03/10 03:26:15;;;;;;;;;;;;;;;-6.11;84.34;100433.81;1716630;83;20087;-66
2022/03/10 03:28:43;;;;;;;;;;;;;;;-6.14;84.31;100444.88;1725687;83;20202;-66
2022/03/10 03:31:10;;;;;;;;;;;;;;;-6.19;84.23;100441.10;1723532;83;20111;-66
2022/03/10 03:33:39;;;;;;;;;;;;;;;-6.25;84.35;100445.34;1720781;81;20121;-66
2022/03/10 03:36:08;;;;;;;;;;;;;;;-6.28;84.19;100454.23;1715845;82;20124;-66
2022/03/10 03:38:36;;;;;;;;;;;;;;;-6.36;84.12;100456.02;1722727;82;20405;-65
2022/03/10 03:41:02;;;;;;;;;;;;;;;-6.42;84.06;100458.59;1716490;82;20188;-65
2022/03/10 03:43:29;;;;;;;;;;;;;;;-6.48;82.63;100468.17;1716551;83;20144;-65
2022/03/10 03:45:56;;;;;;;;;;;;;;;-6.55;81.35;100469.91;1715611;83;21094;-65
2022/03/10 03:48:24;;;;;;;;;;;;;;;-6.64;80.07;100475.00;1712745;83;20195;-66
2022/03/10 03:50:51;;;;;;;;;;;;;;;-6.71;79.61;100476.23;1700373;84;20423;-65
2022/03/10 03:53:18;;;;;;;;;;;;;;;-6.75;79.36;100488.80;1716060;83;20408;-65
2022/03/10 03:55:45;;;;;;;;;;;;;;;-6.80;78.67;100484.50;1706816;83;20136;-66
2022/03/10 03:58:12;;;;;;;;;;;;;;;-6.85;78.35;100483.70;1745894;82;21245;-66
2022/03/10 04:00:39;;;;;;;;;;;;;;;-6.92;77.94;100493.44;1746615;82;20178;-66
2022/03/10 04:03:09;;;;;;;;;;;;;;;-6.98;77.59;100496.02;1746551;82;20095;-66
2022/03/10 04:05:36;;;;;;;;;;;;;;;-7.08;77.44;100502.94;1746592;82;20163;-66
2022/03/10 04:08:04;;;;;;;;;;;;;;;-7.14;77.74;100506.31;1743160;82;20075;-66
2022/03/10 04:10:31;;;;;;;;;;;;;;;-7.19;77.88;100507.34;1723998;83;21284;-66
2022/03/10 04:12:58;;;;;;;;;;;;;;;-7.23;78.16;100510.05;1720069;83;20180;-66
2022/03/10 04:15:27;;;;;;;;;;;;;;;-7.28;78.20;100515.08;1719372;83;20203;-66
2022/03/10 04:17:55;;;;;;;;;;;;;;;-7.33;78.32;100521.77;1723185;83;20148;-65
2022/03/10 04:20:22;;;;;;;;;;;;;;;-7.37;78.62;100525.80;1720621;82;20141;-67
2022/03/10 04:22:50;;;;;;;;;;;;;;;-7.39;78.76;100526.98;1732426;82;21263;-66
2022/03/10 04:25:17;;;;;;;;;;;;;;;-7.41;78.79;100527.66;1718471;83;20101;-66
2022/03/10 04:27:45;;;;;;;;;;;;;;;-7.45;78.58;100531.18;1718417;83;20083;-66
2022/03/10 04:30:13;;;;;;;;;;;;;;;-7.49;78.34;100529.86;1718506;83;20117;-66
2022/03/10 04:32:45;;;;;;;;;;;;;;;-7.52;78.20;100532.91;1740800;82;20107;-66
2022/03/10 04:35:14;;;;;;;;;;;;;;;-7.54;78.05;100538.92;1717257;83;21147;-66
2022/03/10 04:37:42;;;;;;;;;;;;;;;-7.57;77.86;100542.44;1724126;82;20166;-67
2022/03/10 04:40:09;;;;;;;;;;;;;;;-7.60;77.97;100540.95;1710311;82;20154;-67
2022/03/10 04:42:38;;;;;;;;;;;;;;;-7.59;78.28;100543.12;1713928;82;20155;-67
2022/03/10 04:45:06;;;;;;;;;;;;;;;-7.57;78.27;100553.94;1758889;81;20094;-67
2022/03/10 04:47:35;;;;;;;;;;;;;;;-7.58;78.17;100555.45;1758169;81;21777;-66
2022/03/10 04:50:03;;;;;;;;;;;;;;;-7.58;78.31;100555.45;1734858;82;20124;-66
2022/03/10 04:52:30;;;;;;;;;;;;;;;-7.59;78.31;100561.78;1753090;82;20119;-66
2022/03/10 04:54:57;;;;;;;;;;;;;;;-7.59;78.41;100561.78;1752824;82;20709;-65
2022/03/10 04:57:23;;;;;;;;;;;;;;;-7.59;78.44;100567.95;1735653;82;20084;-65
2022/03/10 04:59:50;;;;;;;;;;;;;;;-7.58;78.76;100568.28;1747961;82;21073;-65
2022/03/10 05:02:17;;;;;;;;;;;;;;;-7.59;78.53;100575.95;1744417;82;20099;-64
2022/03/10 05:04:44;;;;;;;;;;;;;;;-7.58;78.56;100578.11;1715352;83;20178;-64
2022/03/10 05:07:11;;;;;;;;;;;;;;;-7.59;78.25;100577.28;1746978;80;20083;-64
2022/03/10 05:09:39;;;;;;;;;;;;;;;-7.58;78.42;100580.28;1750712;80;20433;-64
2022/03/10 05:12:07;;;;;;;;;;;;;;;-7.58;78.50;100582.11;1761325;80;21131;-64
2022/03/10 05:14:35;;;;;;;;;;;;;;;-7.56;77.99;100583.60;1722285;82;20119;-64
2022/03/10 05:17:03;;;;;;;;;;;;;;;-7.55;77.81;100586.60;1735289;82;20118;-64
2022/03/10 05:19:30;;;;;;;;;;;;;;;-7.53;77.71;100587.76;1727734;82;20107;-64
2022/03/10 05:21:58;;;;;;;;;;;;;;;-7.51;77.61;100587.88;1730432;82;20150;-65
2022/03/10 05:24:25;;;;;;;;;;;;;;;-7.47;77.46;100591.03;1713486;83;21129;-65
2022/03/10 05:26:52;;;;;;;;;;;;;;;-7.43;77.04;100597.69;1746946;82;20147;-67
2022/03/10 05:29:19;;;;;;;;;;;;;;;-7.41;76.98;100596.52;1747241;81;20083;-68
2022/03/10 05:31:46;;;;;;;;;;;;;;;-7.39;77.01;100595.83;1742196;82;20126;-64
2022/03/10 05:34:13;;;;;;;;;;;;;;;-7.35;76.49;100611.82;1712717;83;20119;-65
2022/03/10 05:36:41;;;;;;;;;;;;;;;-7.32;77.01;100614.14;1739739;82;21763;-65
2022/03/10 05:39:08;;;;;;;;;;;;;;;-7.26;76.79;100612.62;1755939;81;20216;-66
2022/03/10 05:41:36;;;;;;;;;;;;;;;-7.20;76.71;100616.42;1752088;81;20225;-66
2022/03/10 05:44:04;;;;;;;;;;;;;;;-7.16;76.65;100617.74;1700695;83;20216;-68
2022/03/10 05:46:31;;;;;;;;;;;;;;;-7.12;76.51;100620.39;1714239;83;20111;-66
2022/03/10 05:48:58;;;;;;;;;;;;;;;-7.10;76.05;100621.05;1720805;82;21239;-65
2022/03/10 05:51:26;;;;;;;;;;;;;;;-7.07;75.67;100623.36;1720872;82;20440;-65
2022/03/10 05:53:53;;;;;;;;;;;;;;;-7.03;75.88;100632.18;1742340;82;20125;-65
2022/03/10 05:56:20;;;;;;;;;;;;;;;-6.95;76.12;100632.64;1725380;82;20127;-68
2022/03/10 05:58:47;;;;;;;;;;;;;;;-6.89;75.80;100629.23;1780670;80;20152;-67
2022/03/10 06:01:14;;;;;;;;;;;;;;;-6.85;75.31;100637.22;1782178;80;21127;-68
2022/03/10 06:03:42;;;;;;;;;;;;;;;-6.81;75.44;100643.04;1749589;82;20146;-69
2022/03/10 06:06:11;;;;;;;;;;;;;;;-6.75;74.40;100638.33;1782593;80;20136;-72
2022/03/10 06:08:38;;;;;;;;;;;;;;;-6.71;73.68;100640.97;1782264;80;20642;-70
2022/03/10 06:11:07;;;;;;;;;;;;;;;-6.64;73.36;100645.94;1780536;80;20533;-69
2022/03/10 06:13:34;;;;;;;;;;;;;;;-6.56;72.98;100646.38;1782264;80;21222;-69
2022/03/10 06:16:03;;;;;;;;;;;;;;;-6.50;71.36;100653.69;1782132;79;20108;-75
2022/03/10 06:18:30;;;;;;;;;;;;;;;-6.50;70.54;100651.84;1749940;81;20187;-75
2022/03/10 06:20:57;;;;;;;;;;;;;;;-6.46;70.62;100656.33;1782552;80;20135;-68
2022/03/10 06:23:24;;;;;;;;;;;;;;;-6.37;70.55;100655.27;1782356;80;20120;-69
2022/03/10 06:25:50;;;;;;;;;;;;;;;-6.30;69.93;100656.17;1749463;82;21139;-69
2022/03/10 06:28:17;;;;;;;;;;;;;;;-6.19;70.44;100659.77;1781285;80;20155;-69
2022/03/10 06:30:44;;;;;;;;;;;;;;;-6.11;69.10;100653.02;1781962;80;20116;-69
2022/03/10 06:33:11;;;;;;;;;;;;;;;-6.04;68.55;100654.45;1749491;82;20190;-68
2022/03/10 06:35:38;;;;;;;;;;;;;;;-5.97;68.42;100661.25;1782046;80;20100;-69
2022/03/10 06:38:04;;;;;;;;;;;;;;;-5.93;67.37;100663.89;1782141;80;21112;-70
2022/03/10 06:40:32;;;;;;;;;;;;;;;-5.89;66.90;100666.52;1749046;82;20099;-72
2022/03/10 06:42:59;;;;;;;;;;;;;;;-5.86;66.70;100658.94;1782243;80;20139;-73
2022/03/10 06:45:26;;;;;;;;;;;;;;;-5.82;65.90;100656.22;1781670;80;20178;-74
2022/03/10 06:47:59;;;;;;;;;;;;;;;-5.76;65.63;100654.63;1712731;82;20471;-72
2022/03/10 06:50:26;;;;;;;;;;;;;;;-5.67;65.83;100661.56;1704701;84;21142;-72
2022/03/10 06:52:56;;;;;;;;;;;;;;;-5.55;65.67;100662.77;1687776;84;20463;-72
2022/03/10 06:55:28;;;;;;;;;;;;;;;-5.44;64.67;100661.48;1704307;82;20113;-67
2022/03/10 06:57:58;;;;;;;;;;;;;;;-5.35;63.38;100655.86;1710631;84;20117;-67
2022/03/10 07:00:36;;;;;;;;;;;;;;;-5.29;63.50;100660.14;1728173;81;20097;-67
2022/03/10 07:03:06;;;;;;;;;;;;;;;-5.20;63.44;100661.70;1740084;81;21091;-70
2022/03/10 07:05:36;;;;;;;;;;;;;;;-5.12;62.83;100659.73;1755922;81;20083;-70
2022/03/10 07:08:14;;;;;;;;;;;;;;;-5.04;61.64;100670.84;1726552;81;20167;-70
2022/03/10 07:10:48;;;;;;;;;;;;;;;-4.95;60.93;100668.89;1723985;81;20221;-68
2022/03/10 07:13:17;;;;;;;;;;;;;;;-4.74;61.40;100664.42;1756208;81;20070;-67
2022/03/10 07:15:47;;;;;;;;;;;;;;;-4.28;59.64;100669.92;1727593;81;20134;-67
2022/03/10 07:18:24;;;;;;;;;;;;;;;-3.81;61.76;100665.24;1755781;80;20139;-75
2022/03/10 07:20:56;;;;;;;;;;;;;;;-3.47;58.38;100669.31;1755027;80;20075;-78
2022/03/10 07:23:29;;;;;;;;;;;;;;;-3.22;56.94;100667.47;1725988;81;20145;-81
2022/03/10 07:26:00;;;;;;;;;;;;;;;-2.90;55.36;100664.11;1756637;81;20149;-82
2022/03/10 07:28:28;;;;;;;;;;;;;;;-2.60;54.77;100674.52;1756262;81;21138;-77
2022/03/10 07:31:00;;;;;;;;;;;;;;;-2.39;53.92;100670.34;1727836;81;20086;-81
2022/03/10 07:33:34;;;;;;;;;;;;;;;-2.16;53.60;100669.42;1727662;81;20107;-73
2022/03/10 07:35:59;;;;;;;;;;;;;;;-1.91;51.50;100668.30;1755610;81;20430;-73
2022/03/10 07:38:27;;;;;;;;;;;;;;;-1.76;51.08;100677.52;1755943;80;20123;-84
2022/03/10 07:40:58;;;;;;;;;;;;;;;-1.58;49.95;100673.64;1727554;81;20146;-68
2022/03/10 07:43:25;;;;;;;;;;;;;;;-1.40;50.50;100669.79;1754233;81;20215;-69
2022/03/10 07:45:57;;;;;;;;;;;;;;;-1.24;49.12;100667.69;1755172;80;32384;-70
2022/03/10 07:48:25;;;;;;;;;;;;;;;-1.14;48.81;100666.17;1755297;81;20159;-73
2022/03/10 07:50:57;;;;;;;;;;;;;;;-0.94;49.22;100668.81;1727686;81;20122;-71
2022/03/10 07:53:25;;;;;;;;;;;;;;;-0.82;49.08;100661.70;1754482;81;21872;-71
2022/03/10 07:55:56;;;;;;;;;;;;;;;-0.75;47.99;100672.47;1755213;81;20437;-70
2022/03/10 07:58:28;;;;;;;;;;;;;;;-0.89;47.74;100664.95;1742420;81;20165;-72
2022/03/10 08:00:57;;;;;;;;;;;;;;;-1.03;49.01;100670.91;1768101;81;20529;-67
2022/03/10 08:03:26;;;;;;;;;;;;;;;-1.04;48.16;100673.30;1770871;81;20177;-67
2022/03/10 08:06:01;;;;;;;;;;;;;;;-1.10;48.57;100677.36;1770916;81;21101;-68
2022/03/10 08:08:33;;;;;;;;;;;;;;;-0.97;49.99;100671.93;1770434;81;20164;-69
2022/03/10 08:11:03;;;;;;;;;;;;;;;-0.47;50.55;100672.09;1770459;81;20113;-67
2022/03/10 08:13:39;;;;;;;;;;;;;;;0.01;49.08;100662.93;1770189;81;20176;-67
2022/03/10 08:16:14;;;;;;;;;;;;;;;0.30;47.05;100664.16;1767711;81;20100;-67
2022/03/10 08:18:43;;;;;;;;;;;;;;;0.56;46.43;100658.51;1744324;81;20522;-66
2022/03/10 08:21:13;;;;;;;;;;;;;;;0.87;46.23;100656.70;1771055;81;20165;-67
2022/03/10 08:23:41;;;;;;;;;;;;;;;1.06;45.18;100655.66;1770322;80;20180;-66
2022/03/10 08:26:13;;;;;;;;;;;;;;;0.84;44.09;100655.80;1770793;81;20140;-66
2022/03/10 08:28:39;;;;;;;;;;;;;;;0.47;43.75;100659.84;1750435;81;20123;-66
2022/03/10 08:31:12;;;;;;;;;;;;;;;0.20;43.30;100663.30;1755586;81;21138;-66
2022/03/10 08:33:43;;;;;;;;;;;;;;;-0.46;43.23;100658.91;1736076;81;20097;-66
2022/03/10 08:36:13;;;;;;;;;;;;;;;-0.92;45.62;100658.64;1748185;82;20109;-66
2022/03/10 08:38:42;;;;;;;;;;;;;;;-0.85;46.40;100654.05;1745696;81;21045;-68
2022/03/10 08:41:10;;;;;;;;;;;;;;;-0.84;46.58;100662.96;1747330;82;20097;-67
2022/03/10 08:43:40;;;;;;;;;;;;;;;-0.82;46.31;100665.75;1747810;82;21913;-69
2022/03/10 08:46:07;;;;;;;;;;;;;;;-0.93;45.35;100656.16;1747078;81;20168;-69
2022/03/10 08:48:45;;;;;;;;;;;;;;;-1.13;46.54;100661.61;1747828;82;20105;-67
2022/03/10 08:51:10;;;;;;;;;;;;;;;-1.10;46.64;100663.36;1747044;81;20160;-69
2022/03/10 08:53:43;;;;;;;;;;;;;;;-1.08;44.66;100668.55;1745676;82;20503;-68
2022/03/10 08:56:16;;;;;;;;;;;;;;;-1.17;44.29;100671.19;1747765;82;21211;-68
2022/03/10 08:58:44;;;;;;;;;;;;;;;-1.18;45.45;100673.06;1753180;80;20081;-67
2022/03/10 09:01:13;;;;;;;;;;;;;;;-1.21;44.40;100669.44;1740901;81;20111;-68
2022/03/10 09:03:42;;;;;;;;;;;;;;;-1.39;44.08;100672.79;1725368;83;20071;-67
2022/03/10 09:06:13;;;;;;;;;;;;;;;-1.37;44.66;100656.42;1744683;81;20084;-66
2022/03/10 09:08:45;;;;;;;;;;;;;;;-1.37;44.44;100668.54;1745954;81;21156;-67
2022/03/10 09:11:22;;;;;;;;;;;;;;;-1.30;44.19;100663.14;1739901;81;20145;-74
2022/03/10 09:13:55;;;;;;;;;;;;;;;-1.37;43.76;100661.28;1750397;81;20087;-71
2022/03/10 09:16:27;;;;;;;;;;;;;;;-1.50;44.12;100665.34;1750432;80;20094;-82
2022/03/10 09:19:00;;;;;;;;;;;;;;;-1.46;44.85;100657.16;1751740;80;20641;-73
2022/03/10 09:21:24;;;;;;;;;;;;;;;-1.18;44.58;100663.63;1754703;81;22137;-84
2022/03/10 09:23:55;;;;;;;;;;;;;;;-1.00;44.13;100662.40;1752375;81;20195;-78
2022/03/10 09:26:25;;;;;;;;;;;;;;;-1.09;42.14;100665.54;1754422;80;20169;-79
2022/03/10 09:28:54;;;;;;;;;;;;;;;-1.50;42.73;100668.56;1754041;81;20190;-83
2022/03/10 09:31:25;;;;;;;;;;;;;;;-1.84;43.63;100673.17;1726988;80;20148;-85
2022/03/10 09:33:59;;;;;;;;;;;;;;;-2.17;43.99;100671.80;1723923;82;21349;-78
2022/03/10 09:36:34;;;;;;;;;;;;;;;-2.13;44.68;100679.77;1731741;81;20172;-80
2022/03/10 09:39:00;;;;;;;;;;;;;;;-1.80;44.03;100678.97;1744727;81;20095;-80
2022/03/10 09:41:28;;;;;;;;;;;;;;;-1.64;43.52;100673.65;1751103;81;20421;-84
2022/03/10 09:43:59;;;;;;;;;;;;;;;-1.50;43.48;100672.08;1751190;80;20091;-86
2022/03/10 09:46:34;;;;;;;;;;;;;;;-1.33;43.80;100669.77;1746652;80;21130;-70
2022/03/10 09:49:03;;;;;;;;;;;;;;;-0.93;43.65;100662.38;1754398;81;20404;-70
2022/03/10 09:51:36;;;;;;;;;;;;;;;-0.34;43.71;100669.32;1751454;80;20128;-68
2022/03/10 09:54:06;;;;;;;;;;;;;;;0.25;41.42;100659.41;1756954;81;20118;-70
2022/03/10 09:56:38;;;;;;;;;;;;;;;0.43;41.31;100671.31;1742857;81;20129;-69
2022/03/10 09:59:11;;;;;;;;;;;;;;;0.28;40.66;100664.90;1755825;81;21139;-70
2022/03/10 10:01:35;;;;;;;;;;;;;;;0.14;40.23;100657.95;1740139;81;20111;-72
2022/03/10 10:04:06;;;;;;;;;;;;;;;-0.04;40.48;100668.19;1716960;80;20457;-70
2022/03/10 10:06:56;;;;;;;;;;;;;;;-0.24;40.60;100656.18;1746806;82;20129;-71
2022/03/10 10:09:57;;;;;;;;;;;;;;;-0.28;41.55;100654.13;1726054;82;20122;-71
2022/03/10 10:12:29;;;;;;;;;;;;;;;-0.14;39.86;100658.40;1721847;81;20440;-72
2022/03/10 10:14:58;;;;;;;;;;;;;;;-0.03;40.06;100655.83;1746469;82;20445;-72
2022/03/10 10:17:32;;;;;;;;;;;;;;;0.27;40.46;100636.23;1751275;82;20111;-71
2022/03/10 10:20:07;;;;;;;;;;;;;;;0.58;40.94;100651.50;1750080;82;21041;-70
2022/03/10 10:22:35;;;;;;;;;;;;;;;0.66;40.12;100648.50;1730030;82;20433;-69
2022/03/10 10:25:05;;;;;;;;;;;;;;;0.80;40.75;100651.38;1747488;81;21155;-70
2022/03/10 10:27:35;;;;;;;;;;;;;;;1.14;39.87;100653.17;1742467;81;20480;-71
2022/03/10 10:30:04;;;;;;;;;;;;;;;1.45;39.97;100650.23;1731710;82;20147;-71
2022/03/10 10:32:53;;;;;;;;;;;;;;;1.90;39.07;100648.42;1751452;82;20174;-70
2022/03/10 10:35:10;;;;;;;;;;;;;;;1.88;35.77;100648.65;1739383;81;20480;-75
2022/03/10 10:37:46;;;;;;;;;;;;;;;1.78;37.11;100634.85;1748399;81;21134;-73
2022/03/10 10:40:26;;;;;;;;;;;;;;;1.44;36.78;100634.23;1749750;81;20126;-70
2022/03/10 10:42:56;;;;;;;;;;;;;;;0.87;36.75;100649.95;1730154;81;20484;-69
2022/03/10 10:45:36;;;;;;;;;;;;;;;0.66;38.27;100644.45;1736717;82;20268;-72
2022/03/10 10:48:12;;;;;;;;;;;;;;;0.85;38.47;100643.94;1729495;82;20465;-70
2022/03/10 10:50:44;;;;;;;;;;;;;;;1.11;38.26;100638.22;1751500;82;21974;-71
2022/03/10 10:53:31;;;;;;;;;;;;;;;1.37;38.26;100623.50;1725107;81;20141;-68
2022/03/10 10:56:05;;;;;;;;;;;;;;;1.65;36.52;100630.48;1726584;82;20139;-71
2022/03/10 10:58:33;;;;;;;;;;;;;;;1.76;36.91;100632.08;1743753;81;20855;-71
2022/03/10 11:01:07;;;;;;;;;;;;;;;1.83;37.76;100632.27;1740208;81;20188;-70
2022/03/10 11:03:36;;;;;;;;;;;;;;;2.19;35.96;100637.23;1739096;81;21099;-69
2022/03/10 11:06:04;;;;;;;;;;;;;;;2.43;35.90;100632.63;1703719;83;20466;-70
2022/03/10 11:08:35;;;;;;;;;;;;;;;2.78;34.80;100629.36;1706854;83;20439;-73
2022/03/10 11:11:05;;;;;;;;;;;;;;;2.87;34.34;100624.39;1737403;81;20098;-80
2022/03/10 11:13:39;;;;;;;;;;;;;;;2.85;33.63;100619.73;1765970;81;20125;-72
2022/03/10 11:16:10;;;;;;;;;;;;;;;2.77;33.63;100641.80;1759016;81;21783;-71
2022/03/10 11:18:45;;;;;;;;;;;;;;;2.84;34.21;100632.48;1765475;81;20082;-68
2022/03/10 11:21:36;;;;;;;;;;;;;;;2.87;33.78;100627.11;1740028;81;20098;-67
2022/03/10 11:24:14;;;;;;;;;;;;;;;2.87;34.91;100624.39;1739631;81;20114;-68
2022/03/10 11:26:46;;;;;;;;;;;;;;;2.89;35.20;100626.30;1766651;81;20098;-68
2022/03/10 11:29:23;;;;;;;;;;;;;;;2.88;36.83;100619.27;1739744;81;21162;-68
2022/03/10 11:31:56;;;;;;;;;;;;;;;2.91;35.25;100616.87;1736155;82;20120;-68
2022/03/10 11:34:54;;;;;;;;;;;;;;;2.91;35.27;100622.29;1736314;82;20452;-68
2022/03/10 11:37:42;;;;;;;;;;;;;;;3.24;34.04;100621.61;1720132;81;20492;-68
2022/03/10 11:40:12;;;;;;;;;;;;;;;3.32;33.74;100613.63;1730089;83;20097;-68
2022/03/10 11:42:48;;;;;;;;;;;;;;;3.32;34.87;100624.48;1765356;81;20098;-68
2022/03/10 11:47:56;;;;;;;;;;;;;;;3.06;32.90;100615.53;1733324;81;20140;-68
2022/03/10 11:50:25;;;;;;;;;;;;;;;2.80;33.77;100631.83;1773719;80;20160;-68
2022/03/10 11:53:03;;;;;;;;;;;;;;;2.54;35.01;100639.39;1762451;81;20496;-68
2022/03/10 11:55:40;;;;;;;;;;;;;;;2.37;34.24;100626.25;1739989;81;21061;-69
2022/03/10 11:58:14;;;;;;;;;;;;;;;2.62;33.68;100619.23;1740463;81;20094;-68
2022/03/10 12:00:47;;;;;;;;;;;;;;;2.89;32.84;100617.64;1701409;82;20139;-69
2022/03/10 12:03:27;;;;;;;;;;;;;;;2.94;30.91;100612.85;1755374;79;20104;-69
2022/03/10 12:06:12;;;;;;;;;;;;;;;3.06;32.75;100619.07;1716498;82;20119;-69
2022/03/10 12:08:47;;;;;;;;;;;;;;;3.22;31.30;100618.84;1741667;81;21798;-68
2022/03/10 12:11:10;;;;;;;;;;;;;;;3.29;32.63;100616.29;1765816;81;20141;-69
2022/03/10 12:13:44;;;;;;;;;;;;;;;3.45;31.95;100610.63;1755069;81;20139;-69
2022/03/10 12:16:26;;;;;;;;;;;;;;;3.62;31.28;100618.24;1763732;81;20160;-69
2022/03/10 12:18:59;;;;;;;;;;;;;;;3.61;33.32;100621.20;1762292;81;20471;-69
2022/03/10 12:21:34;;;;;;;;;;;;;;;3.76;31.78;100613.86;1745679;81;20491;-69
2022/03/10 12:24:06;;;;;;;;;;;;;;;3.86;30.31;100629.81;1771507;81;20113;-69
2022/03/10 12:26:33;;;;;;;;;;;;;;;3.58;29.70;100624.41;1770047;81;20472;-69
2022/03/10 12:29:04;;;;;;;;;;;;;;;3.57;30.15;100618.68;1771642;81;20132;-69
2022/03/10 12:31:36;;;;;;;;;;;;;;;3.54;30.05;100618.64;1771841;80;20108;-69
2022/03/10 12:34:12;;;;;;;;;;;;;;;3.50;30.66;100627.51;1755649;81;21132;-69
2022/03/10 12:36:54;;;;;;;;;;;;;;;3.64;30.26;100622.90;1776825;79;20079;-72
2022/03/10 12:39:23;;;;;;;;;;;;;;;3.70;29.63;100623.81;1802174;79;20079;-70
2022/03/10 12:42:05;;;;;;;;;;;;;;;3.71;30.35;100617.31;1782956;79;20140;-67
2022/03/10 12:44:35;;;;;;;;;;;;;;;3.77;31.07;100612.80;1700723;82;20098;-70
2022/03/10 12:47:08;;;;;;;;;;;;;;;3.89;29.55;100617.09;1712462;81;21260;-71
2022/03/10 12:49:50;;;;;;;;;;;;;;;3.96;29.82;100620.47;1726382;82;20472;-73
2022/03/10 12:52:17;;;;;;;;;;;;;;;3.96;28.92;100611.50;1728381;83;20485;-70
2022/03/10 12:54:48;;;;;;;;;;;;;;;3.80;29.18;100615.02;1729317;83;20228;-70
2022/03/10 12:57:23;;;;;;;;;;;;;;;3.73;29.12;100619.78;1722369;83;20200;-68
2022/03/10 12:59:55;;;;;;;;;;;;;;;3.85;28.87;100620.55;1699610;83;20513;-69
2022/03/10 13:02:26;;;;;;;;;;;;;;;3.89;28.21;100618.45;1722635;82;20100;-68